Time;durP1;ratioP1;P1;durP2;ratioP2;P2;SDS_P1;SDS_P2;PMS_P1;PMS_P2;Temp;Humidity;BMP_temperature;BMP_pressure;BME280_temperature;BME280_humidity;BME280_pressure;Samples;Min_cycle;Max_cycle;Signal;HPM_P1;HPM_P2
2022/04/16 05:25:51;;;;;;;3.55;3.25;;;8.50;99.90;;;;;;4878287;29;20225;-64
2022/04/16 05:28:18;;;;;;;3.10;2.90;;;8.80;99.90;;;;;;4879919;29;20238;-64
2022/04/16 05:30:48;;;;;;;4.68;4.10;;;9.20;99.90;;;;;;4879551;29;20555;-64
2022/04/16 05:34:18;;;;;;;3.50;3.22;;;9.50;99.90;;;;;;4879635;29;20793;-64
2022/04/16 05:36:05;;;;;;;3.72;3.42;;;9.80;99.90;;;;;;4879483;29;20207;-64
2022/04/16 05:38:32;;;;;;;3.78;3.47;;;10.40;99.90;;;;;;4880026;29;20682;-63
2022/04/16 05:41:00;;;;;;;3.78;3.50;;;10.70;99.90;;;;;;4879771;29;20245;-62
2022/04/16 05:43:27;;;;;;;3.97;3.63;;;10.80;99.90;;;;;;4879315;29;20291;-62
2022/04/16 05:45:54;;;;;;;3.20;3.03;;;11.00;99.90;;;;;;4879345;29;20249;-62
2022/04/16 05:48:21;;;;;;;2.60;2.50;;;11.40;99.90;;;;;;4879806;29;20245;-62
2022/04/16 05:50:48;;;;;;;3.05;2.85;;;11.90;99.90;;;;;;4880040;29;20238;-62
2022/04/16 05:53:16;;;;;;;3.28;3.08;;;12.30;99.40;;;;;;4879503;29;20737;-62
2022/04/16 05:55:46;;;;;;;3.10;2.95;;;12.30;95.10;;;;;;4879679;29;20246;-62
2022/04/16 05:58:15;;;;;;;3.00;2.80;;;12.60;96.50;;;;;;4879618;29;20195;-62
2022/04/16 06:00:42;;;;;;;2.60;2.45;;;13.10;98.30;;;;;;4879584;29;20547;-62
2022/04/16 06:03:09;;;;;;;2.75;2.63;;;13.60;88.00;;;;;;4879171;29;20230;-62
2022/04/16 06:05:36;;;;;;;3.58;3.28;;;13.90;72.80;;;;;;4879167;29;20253;-62
2022/04/16 06:08:04;;;;;;;2.90;2.70;;;13.70;73.60;;;;;;4879334;29;20254;-62
2022/04/16 06:10:31;;;;;;;2.60;2.50;;;13.90;82.20;;;;;;4878659;29;20242;-63
2022/04/16 06:12:58;;;;;;;2.03;2.00;;;14.40;68.40;;;;;;4878884;29;20675;-62
2022/04/16 06:15:26;;;;;;;3.20;3.00;;;14.80;73.90;;;;;;4879151;29;20234;-62
2022/04/16 06:17:53;;;;;;;2.33;2.22;;;15.10;57.60;;;;;;4878959;29;20210;-62
2022/04/16 06:20:20;;;;;;;2.15;2.05;;;14.90;70.20;;;;;;4879172;29;20734;-62
2022/04/16 06:22:47;;;;;;;3.40;3.20;;;15.30;59.40;;;;;;4878796;29;20706;-63
2022/04/16 06:25:14;;;;;;;2.05;1.98;;;15.30;54.60;;;;;;4879303;29;20238;-62
2022/04/16 06:27:41;;;;;;;2.63;2.53;;;15.30;59.70;;;;;;4882083;29;20268;-63
2022/04/16 06:30:10;;;;;;;2.50;2.40;;;15.50;54.30;;;;;;4882897;29;20250;-63
2022/04/16 06:32:39;;;;;;;2.47;2.22;;;16.00;56.00;;;;;;4882994;29;20241;-63
2022/04/16 06:35:07;;;;;;;2.70;2.53;;;16.20;53.10;;;;;;4882987;29;20571;-64
2022/04/16 06:37:34;;;;;;;2.28;2.17;;;16.50;49.10;;;;;;4883455;29;20202;-64
2022/04/16 06:40:02;;;;;;;2.47;2.38;;;16.70;48.10;;;;;;4883590;29;20234;-64
2022/04/16 06:42:29;;;;;;;2.80;2.70;;;16.50;49.00;;;;;;4882940;29;20596;-64
2022/04/16 06:44:56;;;;;;;2.35;2.25;;;16.70;45.70;;;;;;4882648;29;20257;-64
2022/04/16 06:47:23;;;;;;;2.30;2.20;;;16.80;47.30;;;;;;4882552;29;20222;-64
2022/04/16 06:49:52;;;;;;;2.13;2.03;;;17.20;46.90;;;;;;4882825;29;20313;-64
2022/04/16 06:52:19;;;;;;;3.13;2.92;;;17.30;45.00;;;;;;4882650;29;20206;-64
2022/04/16 06:54:46;;;;;;;3.28;2.97;;;16.60;45.20;;;;;;4882327;29;20252;-64
2022/04/16 06:57:13;;;;;;;2.35;2.25;;;15.80;46.00;;;;;;4882520;29;20234;-64
2022/04/16 06:59:40;;;;;;;2.80;2.70;;;14.90;49.00;;;;;;4882409;29;20237;-64
2022/04/16 07:02:08;;;;;;;2.50;2.40;;;14.70;53.00;;;;;;4882046;29;20253;-64
2022/04/16 07:04:35;;;;;;;4.03;3.67;;;14.70;55.10;;;;;;4881963;29;20234;-64
2022/04/16 07:07:04;;;;;;;2.88;2.67;;;14.60;52.30;;;;;;4882109;29;20310;-64
2022/04/16 07:09:31;;;;;;;4.68;3.33;;;14.20;52.20;;;;;;4881699;29;20253;-64
2022/04/16 07:11:58;;;;;;;2.60;2.40;;;13.50;58.00;;;;;;4882142;29;20238;-64
2022/04/16 07:14:25;;;;;;;6.15;2.92;;;13.60;62.80;;;;;;4881869;29;20269;-63
2022/04/16 07:16:52;;;;;;;3.20;3.00;;;14.10;56.50;;;;;;4882537;29;20207;-63
2022/04/16 07:19:19;;;;;;;2.70;2.60;;;14.00;57.00;;;;;;4881911;29;20206;-64
2022/04/16 07:21:46;;;;;;;3.03;2.83;;;14.30;58.80;;;;;;4881960;29;20242;-64
2022/04/16 07:24:14;;;;;;;3.35;3.05;;;14.80;51.20;;;;;;4881549;29;20692;-64
2022/04/16 07:26:41;;;;;;;2.95;2.75;;;14.70;51.70;;;;;;4881652;29;20266;-63
2022/04/16 07:29:08;;;;;;;3.22;2.92;;;14.80;51.10;;;;;;4881396;29;20250;-63
2022/04/16 07:31:34;;;;;;;3.30;3.08;;;14.80;49.50;;;;;;4881517;29;20582;-63
2022/04/16 07:34:01;;;;;;;3.45;3.22;;;13.60;52.60;;;;;;4881633;29;20262;-63
2022/04/16 07:36:28;;;;;;;3.53;3.30;;;12.80;60.10;;;;;;4881564;29;20207;-63
2022/04/16 07:38:55;;;;;;;2.90;2.70;;;12.80;65.40;;;;;;4880756;29;20246;-63
2022/04/16 07:41:23;;;;;;;2.80;2.60;;;12.70;75.90;;;;;;4881268;29;20243;-64
2022/04/16 07:43:50;;;;;;;2.58;2.47;;;12.60;64.20;;;;;;4881602;29;20261;-64
2022/04/16 07:46:21;;;;;;;3.13;2.92;;;11.90;78.10;;;;;;4881452;29;20317;-64
2022/04/16 07:48:48;;;;;;;3.22;3.03;;;11.70;83.00;;;;;;4881577;29;20215;-64
2022/04/16 07:51:15;;;;;;;3.13;2.92;;;12.10;75.50;;;;;;4881164;29;20249;-64
2022/04/16 07:53:42;;;;;;;2.80;2.60;;;11.50;90.90;;;;;;4881275;29;20298;-63
2022/04/16 07:56:09;;;;;;;3.47;3.17;;;11.20;89.30;;;;;;4881321;29;20246;-63
2022/04/16 07:58:37;;;;;;;2.80;2.65;;;11.00;95.90;;;;;;4881033;29;20238;-63
2022/04/16 08:01:04;;;;;;;3.70;3.40;;;10.60;99.90;;;;;;4881022;29;20694;-63
2022/04/16 08:03:31;;;;;;;3.25;3.05;;;10.40;99.90;;;;;;4881591;29;20265;-63
2022/04/16 08:05:58;;;;;;;4.13;3.05;;;10.00;99.90;;;;;;4880673;29;20246;-63
2022/04/16 08:08:25;;;;;;;3.08;2.88;;;10.00;99.90;;;;;;4880983;29;20257;-63
2022/04/16 08:10:53;;;;;;;3.17;2.97;;;9.80;99.90;;;;;;4880858;29;20242;-63
2022/04/16 08:13:20;;;;;;;3.45;3.25;;;9.80;99.90;;;;;;4880514;29;20279;-63
2022/04/16 08:15:50;;;;;;;3.45;3.15;;;9.80;99.90;;;;;;4880421;29;20714;-63
2022/04/16 08:18:17;;;;;;;2.88;2.67;;;9.70;99.90;;;;;;4880558;29;20551;-64
2022/04/16 08:20:45;;;;;;;3.30;3.10;;;9.70;99.90;;;;;;4880619;29;20238;-63
2022/04/16 08:23:13;;;;;;;2.88;2.67;;;9.80;99.90;;;;;;4880504;29;20586;-63
2022/04/16 08:25:45;;;;;;;2.78;2.60;;;9.90;99.90;;;;;;4880687;29;20219;-63
2022/04/16 08:28:12;;;;;;;2.33;2.22;;;10.00;99.90;;;;;;4880675;29;20246;-63
2022/04/16 08:30:39;;;;;;;2.78;2.58;;;10.20;99.90;;;;;;4880580;29;20238;-63
2022/04/16 08:33:13;;;;;;;2.40;2.30;;;10.30;99.90;;;;;;4880179;29;20257;-64
2022/04/16 08:35:42;;;;;;;3.15;2.92;;;10.30;99.90;;;;;;4880241;29;20624;-63
2022/04/16 08:38:10;;;;;;;3.05;2.92;;;10.10;99.90;;;;;;4880267;29;20258;-63
2022/04/16 08:40:38;;;;;;;3.30;3.08;;;10.20;99.90;;;;;;4880151;29;20242;-63
2022/04/16 08:43:07;;;;;;;2.67;2.47;;;10.00;99.90;;;;;;4884301;29;20583;-63
2022/04/16 08:45:37;;;;;;;2.83;2.63;;;10.10;99.90;;;;;;4885310;29;20211;-63
2022/04/16 08:48:05;;;;;;;2.20;2.10;;;10.20;99.90;;;;;;4884015;29;20258;-67
2022/04/16 08:50:34;;;;;;;2.42;2.33;;;10.40;99.90;;;;;;4880182;29;20693;-67
2022/04/16 08:53:01;;;;;;;2.88;2.70;;;10.50;99.90;;;;;;4880247;29;20230;-66
2022/04/16 08:55:29;;;;;;;2.53;2.40;;;10.30;99.90;;;;;;4880104;29;20575;-63
2022/04/16 08:57:57;;;;;;;2.88;2.20;;;10.40;99.60;;;;;;4880232;29;20192;-63
2022/04/16 09:00:24;;;;;;;2.22;2.13;;;10.20;99.90;;;;;;4880701;29;20202;-63
2022/04/16 09:02:54;;;;;;;2.33;2.22;;;10.10;99.90;;;;;;4880106;29;20310;-63
2022/04/16 09:05:21;;;;;;;2.60;2.40;;;10.10;99.90;;;;;;4880418;29;20210;-63
2022/04/16 09:07:51;;;;;;;2.15;2.05;;;10.10;98.00;;;;;;4879889;29;20673;-68
2022/04/16 09:10:18;;;;;;;2.25;2.15;;;10.20;98.40;;;;;;4879750;29;20679;-67
2022/04/16 09:12:45;;;;;;;2.15;1.75;;;10.30;99.90;;;;;;4879870;29;20242;-67
2022/04/16 09:15:14;;;;;;;2.38;2.10;;;10.50;99.30;;;;;;4880061;29;20209;-68
2022/04/16 09:17:42;;;;;;;1.98;1.92;;;10.80;94.40;;;;;;4879961;29;20206;-67
2022/04/16 09:20:13;;;;;;;1.90;1.80;;;10.90;86.40;;;;;;4879712;29;20598;-69
2022/04/16 09:22:41;;;;;;;2.30;2.20;;;10.90;85.40;;;;;;4879975;29;20247;-69
2022/04/16 09:25:18;;;;;;;1.80;1.80;;;11.00;80.00;;;;;;4883538;29;20211;-67
2022/04/16 09:27:49;;;;;;;1.48;1.48;;;11.00;74.60;;;;;;4884994;29;20268;-68
2022/04/16 09:30:23;;;;;;;3.20;1.80;;;11.20;74.10;;;;;;4882948;29;20695;-67
2022/04/16 09:32:52;;;;;;;1.52;1.42;;;11.50;67.90;;;;;;4883872;29;20532;-67
2022/04/16 09:35:31;;;;;;;1.92;1.80;;;11.40;66.80;;;;;;4883455;29;20718;-63
2022/04/16 09:37:59;;;;;;;1.50;1.50;;;11.40;66.10;;;;;;4882893;29;20207;-67
2022/04/16 09:40:29;;;;;;;1.60;1.58;;;11.60;61.90;;;;;;4882252;29;20234;-69
2022/04/16 09:42:59;;;;;;;1.27;1.27;;;11.50;64.60;;;;;;4880468;29;20215;-68
2022/04/16 09:45:26;;;;;;;4.45;1.65;;;11.50;56.00;;;;;;4883954;29;20213;-63
2022/04/16 09:47:54;;;;;;;1.70;1.60;;;11.40;57.30;;;;;;4884020;29;20215;-64
2022/04/16 09:50:23;;;;;;;1.92;1.67;;;11.30;55.40;;;;;;4883096;29;20191;-63
2022/04/16 09:52:55;;;;;;;1.70;1.48;;;11.20;58.20;;;;;;4883381;29;20212;-63
2022/04/16 09:55:24;;;;;;;1.75;1.75;;;11.10;61.40;;;;;;4883815;29;20207;-63
2022/04/16 09:57:58;;;;;;;1.55;1.45;;;11.20;60.60;;;;;;4882792;29;20290;-63
2022/04/16 10:00:26;;;;;;;1.40;1.40;;;11.20;59.40;;;;;;4882893;29;20270;-63
2022/04/16 10:02:54;;;;;;;1.30;1.30;;;11.30;58.80;;;;;;4885909;29;20528;-63
2022/04/16 10:05:23;;;;;;;3.38;1.70;;;11.40;56.90;;;;;;4887250;29;20327;-63
2022/04/16 10:07:52;;;;;;;1.67;1.58;;;11.40;57.80;;;;;;4887357;29;20263;-68
2022/04/16 10:10:25;;;;;;;1.60;1.50;;;11.30;56.60;;;;;;4887817;29;20211;-67
2022/04/16 10:13:04;;;;;;;1.90;1.58;;;11.30;58.20;;;;;;4885884;29;20214;-65
2022/04/16 10:16:02;;;;;;;2.13;2.05;;;11.40;56.90;;;;;;4886958;29;20202;-64
2022/04/16 10:18:33;;;;;;;3.35;2.00;;;11.40;57.10;;;;;;4883390;29;20667;-64
2022/04/16 10:21:02;;;;;;;2.10;2.00;;;11.50;56.80;;;;;;4887817;29;20520;-67
2022/04/16 10:23:30;;;;;;;1.88;1.77;;;11.50;56.70;;;;;;4887211;29;20278;-63
2022/04/16 10:26:06;;;;;;;1.60;1.55;;;11.30;57.30;;;;;;4886330;29;20215;-64
2022/04/16 10:28:42;;;;;;;2.28;2.17;;;11.20;58.40;;;;;;4885997;29;20257;-68
2022/04/16 10:31:23;;;;;;;3.58;2.70;;;10.90;67.70;;;;;;4886349;29;20283;-64
2022/04/16 10:34:01;;;;;;;2.28;2.17;;;10.50;75.70;;;;;;4886188;29;20234;-64
2022/04/16 10:36:32;;;;;;;2.90;2.60;;;10.40;81.30;;;;;;4886652;29;20255;-64
2022/04/16 10:39:01;;;;;;;2.88;2.67;;;10.50;84.10;;;;;;4886640;29;20191;-64
2022/04/16 10:41:29;;;;;;;2.60;2.50;;;10.50;81.90;;;;;;4885556;29;20230;-64
2022/04/16 10:44:00;;;;;;;4.28;2.80;;;10.40;82.70;;;;;;4887068;29;20699;-64
2022/04/16 10:46:43;;;;;;;2.83;2.63;;;10.30;84.10;;;;;;4886381;29;20229;-64
2022/04/16 10:49:11;;;;;;;2.65;2.42;;;10.20;86.10;;;;;;4886631;29;20215;-64
2022/04/16 10:51:39;;;;;;;2.35;2.25;;;10.20;90.90;;;;;;4885795;29;20203;-64
2022/04/16 10:54:10;;;;;;;2.50;2.30;;;10.20;82.90;;;;;;4886896;29;20227;-63
2022/04/16 10:56:39;;;;;;;2.60;2.38;;;10.40;87.40;;;;;;4886972;29;20219;-63
2022/04/16 10:59:10;;;;;;;2.95;2.75;;;10.50;73.20;;;;;;4885836;29;20211;-63
2022/04/16 11:01:39;;;;;;;3.15;2.95;;;10.50;73.40;;;;;;4886702;29;20206;-68
2022/04/16 11:04:14;;;;;;;2.20;2.10;;;10.30;77.30;;;;;;4885068;29;20571;-67
2022/04/16 11:06:45;;;;;;;2.60;2.42;;;10.30;79.10;;;;;;4887038;29;20270;-68
2022/04/16 11:09:14;;;;;;;2.40;2.30;;;10.60;79.40;;;;;;4886225;29;20615;-68
2022/04/16 11:11:41;;;;;;;2.35;2.25;;;10.70;75.80;;;;;;4886275;29;20566;-68
2022/04/16 11:14:11;;;;;;;2.28;2.17;;;10.90;74.70;;;;;;4885241;29;20254;-64
2022/04/16 11:16:45;;;;;;;2.70;2.50;;;10.80;76.00;;;;;;4887059;29;20213;-64
2022/04/16 11:19:13;;;;;;;2.67;2.58;;;11.00;75.20;;;;;;4886966;29;20213;-64
2022/04/16 11:21:41;;;;;;;2.15;2.08;;;10.90;75.70;;;;;;4887382;29;20210;-64
2022/04/16 11:24:09;;;;;;;2.70;2.60;;;10.90;75.40;;;;;;4886974;29;20230;-63
2022/04/16 11:34:55;;;;;;;2.83;2.63;;;10.80;73.60;;;;;;4885527;29;20362;-64
2022/04/16 11:37:22;;;;;;;2.15;2.05;;;10.50;78.60;;;;;;4886770;29;20238;-64
2022/04/16 11:40:00;;;;;;;2.53;2.33;;;10.40;82.30;;;;;;4886361;29;20202;-64
2022/04/16 11:42:27;;;;;;;2.03;2.00;;;10.40;85.20;;;;;;4887130;29;20190;-64
2022/04/16 11:44:57;;;;;;;2.55;2.38;;;10.30;81.90;;;;;;4885751;29;20274;-64
2022/04/16 11:47:26;;;;;;;2.63;2.42;;;10.30;84.80;;;;;;4885932;29;20245;-65
2022/04/16 11:49:55;;;;;;;2.40;2.20;;;10.30;86.00;;;;;;4885834;29;20230;-65
2022/04/16 11:52:27;;;;;;;2.50;2.40;;;10.40;88.30;;;;;;4885702;29;20574;-65
2022/04/16 11:55:04;;;;;;;4.10;3.78;;;10.50;82.80;;;;;;4883835;29;20226;-65
2022/04/16 11:57:31;;;;;;;2.47;2.28;;;10.40;84.70;;;;;;4885753;29;20195;-67
2022/04/16 12:00:00;;;;;;;2.30;2.20;;;10.40;84.00;;;;;;4883781;29;20203;-67
2022/04/16 12:02:32;;;;;;;2.33;2.13;;;10.30;82.40;;;;;;4883777;29;20211;-67
2022/04/16 12:05:13;;;;;;;2.35;2.25;;;10.20;82.00;;;;;;4889150;29;20231;-67
2022/04/16 12:07:44;;;;;;;2.80;2.22;;;10.40;82.60;;;;;;4887458;29;20191;-67
2022/04/16 12:10:14;;;;;;;2.53;2.33;;;10.50;77.40;;;;;;4885773;29;20278;-68
2022/04/16 12:12:44;;;;;;;2.22;2.13;;;10.60;86.00;;;;;;4886383;29;20209;-67
2022/04/16 12:15:16;;;;;;;3.13;2.92;;;10.70;77.90;;;;;;4887205;29;20695;-67
2022/04/16 12:17:43;;;;;;;2.88;2.67;;;10.60;80.30;;;;;;4887318;29;20199;-68
2022/04/16 12:20:13;;;;;;;2.53;2.30;;;10.60;80.70;;;;;;4886315;29;20259;-67
2022/04/16 12:22:48;;;;;;;3.47;3.28;;;10.70;82.50;;;;;;4886717;29;20206;-68
2022/04/16 12:25:17;;;;;;;3.95;3.53;;;10.50;79.90;;;;;;4886938;29;20212;-66
2022/04/16 12:27:46;;;;;;;3.08;2.95;;;10.50;80.50;;;;;;4886856;29;20234;-67
2022/04/16 12:30:16;;;;;;;3.20;3.00;;;10.40;81.90;;;;;;4886443;29;20222;-66
2022/04/16 12:32:54;;;;;;;3.33;3.13;;;10.60;81.70;;;;;;4886128;29;20206;-66
2022/04/16 12:35:21;;;;;;;3.20;3.00;;;10.70;78.20;;;;;;4886149;29;20258;-67
2022/04/16 12:37:49;;;;;;;3.80;3.53;;;10.80;82.50;;;;;;4885749;29;20211;-66
2022/04/16 12:40:16;;;;;;;4.50;4.20;;;10.70;87.40;;;;;;4885205;29;20198;-66
2022/04/16 12:42:43;;;;;;;4.00;3.80;;;10.70;91.60;;;;;;4880929;29;20207;-67
2022/04/16 12:45:10;;;;;;;4.30;4.00;;;10.70;90.80;;;;;;4880885;29;20203;-67
2022/04/16 12:47:39;;;;;;;4.45;4.10;;;10.60;80.70;;;;;;4880373;29;20238;-67
2022/04/16 12:50:08;;;;;;;4.50;4.18;;;10.40;87.60;;;;;;4880396;29;20261;-66
2022/04/16 12:52:35;;;;;;;4.95;4.50;;;10.30;90.80;;;;;;4880314;29;20207;-67
2022/04/16 12:55:03;;;;;;;5.07;4.57;;;10.40;90.90;;;;;;4880238;29;20261;-66
2022/04/16 12:57:30;;;;;;;4.70;4.40;;;10.30;91.90;;;;;;4880181;29;20207;-67
2022/04/16 12:59:57;;;;;;;5.15;4.72;;;10.40;90.20;;;;;;4880525;29;20203;-66
2022/04/16 13:02:24;;;;;;;5.00;4.60;;;10.20;91.10;;;;;;4880170;29;20242;-66
2022/04/16 13:04:54;;;;;;;5.00;4.70;;;10.10;93.00;;;;;;4880529;29;20266;-66
2022/04/16 13:07:22;;;;;;;4.95;4.60;;;10.00;94.90;;;;;;4880127;29;20191;-68
2022/04/16 13:09:48;;;;;;;5.38;4.88;;;10.00;96.30;;;;;;4880612;29;20264;-66
2022/04/16 13:12:18;;;;;;;4.80;4.40;;;10.00;95.20;;;;;;4880241;29;20233;-66
2022/04/16 13:14:46;;;;;;;5.80;5.28;;;10.20;97.30;;;;;;4879712;29;20703;-66
2022/04/16 13:17:13;;;;;;;4.97;4.57;;;10.30;92.70;;;;;;4879742;29;20210;-66
2022/04/16 13:19:41;;;;;;;6.03;4.88;;;10.40;92.00;;;;;;4880016;29;20199;-66
2022/04/16 13:22:09;;;;;;;4.75;4.38;;;10.50;90.50;;;;;;4879694;29;20298;-66
2022/04/16 13:24:36;;;;;;;4.28;3.97;;;10.40;91.70;;;;;;4879942;29;20269;-68
2022/04/16 13:27:05;;;;;;;4.35;4.05;;;10.40;89.20;;;;;;4879676;29;20237;-67
2022/04/16 13:29:33;;;;;;;4.13;3.72;;;10.50;90.70;;;;;;4879977;29;20313;-67
2022/04/16 13:32:00;;;;;;;4.53;4.13;;;10.60;89.40;;;;;;4880109;29;20234;-67
2022/04/16 13:34:27;;;;;;;3.75;3.53;;;10.60;88.60;;;;;;4880006;29;20235;-68
2022/04/16 13:36:54;;;;;;;3.75;3.50;;;10.60;87.10;;;;;;4879385;29;20286;-68
2022/04/16 13:42:06;;;;;;;3.92;3.63;;;10.80;79.20;;;;;;4880004;29;20218;-67
2022/04/16 13:44:34;;;;;;;3.30;3.03;;;10.80;76.80;;;;;;4880342;29;20227;-69
2022/04/16 13:47:01;;;;;;;4.45;3.65;;;10.90;76.10;;;;;;4879702;29;20246;-68
2022/04/16 13:49:28;;;;;;;3.35;3.15;;;11.00;76.10;;;;;;4879329;29;20726;-68
2022/04/16 13:51:57;;;;;;;3.10;2.90;;;11.10;69.50;;;;;;4879914;29;20238;-69
2022/04/16 13:54:25;;;;;;;3.25;3.05;;;11.20;69.40;;;;;;4879741;29;20305;-66
2022/04/16 13:56:53;;;;;;;3.35;3.15;;;11.30;69.80;;;;;;4879928;29;20218;-67
2022/04/16 13:59:21;;;;;;;3.28;3.08;;;11.40;66.00;;;;;;4879628;29;20226;-67
2022/04/16 14:01:50;;;;;;;3.08;2.88;;;11.30;66.40;;;;;;4879429;29;20211;-66
2022/04/16 14:04:17;;;;;;;2.90;2.80;;;11.30;66.50;;;;;;4879238;29;20250;-66
2022/04/16 14:06:44;;;;;;;2.50;2.40;;;11.30;65.60;;;;;;4879618;29;20219;-67
2022/04/16 14:09:11;;;;;;;2.67;2.38;;;11.40;67.90;;;;;;4879536;29;20318;-67
2022/04/16 14:11:41;;;;;;;3.33;3.13;;;11.50;66.20;;;;;;4879558;29;20341;-69
2022/04/16 14:14:08;;;;;;;3.78;3.42;;;11.40;67.60;;;;;;4879144;29;20230;-67
2022/04/16 14:16:35;;;;;;;3.28;3.08;;;11.30;68.20;;;;;;4879219;29;20246;-68
2022/04/16 14:19:02;;;;;;;3.70;3.47;;;11.20;70.80;;;;;;4879508;29;20274;-69
2022/04/16 14:21:30;;;;;;;3.50;2.95;;;11.10;72.80;;;;;;4879170;29;20633;-64
2022/04/16 14:23:57;;;;;;;3.88;3.28;;;11.10;74.50;;;;;;4879541;29;20231;-69
2022/04/16 14:26:24;;;;;;;4.10;3.80;;;11.00;70.80;;;;;;4879122;29;20210;-69
2022/04/16 14:28:52;;;;;;;5.78;3.60;;;10.90;75.60;;;;;;4879413;29;20286;-68
2022/04/16 14:31:19;;;;;;;3.90;3.60;;;10.80;82.20;;;;;;4879064;29;20725;-69
2022/04/16 14:33:46;;;;;;;3.75;3.42;;;10.80;87.50;;;;;;4879291;29;20223;-69
2022/04/16 14:36:13;;;;;;;3.72;3.30;;;10.80;85.00;;;;;;4879119;29;20246;-69
2022/04/16 14:38:42;;;;;;;3.20;3.00;;;10.70;78.50;;;;;;4879407;29;20241;-69
2022/04/16 14:41:13;;;;;;;3.67;3.47;;;10.50;78.10;;;;;;4879266;29;20222;-69
2022/04/16 14:43:45;;;;;;;3.03;2.53;;;10.40;78.40;;;;;;4878966;29;20223;-68
2022/04/16 14:46:13;;;;;;;3.20;3.10;;;10.50;83.50;;;;;;4879355;29;20294;-69
2022/04/16 14:48:40;;;;;;;2.78;2.60;;;10.50;78.00;;;;;;4881479;29;20207;-68
2022/04/16 14:51:07;;;;;;;3.45;3.25;;;10.30;78.50;;;;;;4882556;29;20242;-68
2022/04/16 14:53:35;;;;;;;2.88;2.75;;;10.30;71.70;;;;;;4882782;29;20267;-67
2022/04/16 14:56:02;;;;;;;3.10;2.90;;;10.30;71.90;;;;;;4882920;29;20211;-68
2022/04/16 14:58:30;;;;;;;2.90;2.67;;;10.30;71.50;;;;;;4882953;29;20246;-68
2022/04/16 15:00:57;;;;;;;3.22;3.03;;;10.30;71.60;;;;;;4882089;29;20667;-68
2022/04/16 15:03:25;;;;;;;3.05;2.85;;;10.40;72.50;;;;;;4882257;29;20249;-68
2022/04/16 15:05:52;;;;;;;3.13;2.92;;;10.50;69.60;;;;;;4882233;29;20230;-68
2022/04/16 15:08:19;;;;;;;2.70;2.55;;;10.50;70.20;;;;;;4882201;29;20242;-68
2022/04/16 15:10:46;;;;;;;2.72;2.55;;;10.60;71.10;;;;;;4882129;29;20230;-68
2022/04/16 15:13:13;;;;;;;3.75;3.45;;;10.60;68.90;;;;;;4882101;29;20265;-68
2022/04/16 15:15:40;;;;;;;3.35;3.15;;;10.60;68.10;;;;;;4881803;29;20245;-68
2022/04/16 15:18:07;;;;;;;3.03;2.72;;;10.70;68.50;;;;;;4881801;29;20675;-68
2022/04/16 15:20:38;;;;;;;2.47;2.38;;;10.80;64.40;;;;;;4881758;29;20245;-68
2022/04/16 15:23:05;;;;;;;2.97;2.78;;;10.80;64.30;;;;;;4881969;29;20241;-68
2022/04/16 15:25:32;;;;;;;2.78;2.67;;;10.80;66.90;;;;;;4882085;29;20241;-68
2022/04/16 15:27:59;;;;;;;3.20;3.00;;;10.70;66.90;;;;;;4881980;29;20230;-68
2022/04/16 15:30:26;;;;;;;3.28;3.00;;;10.70;66.80;;;;;;4881773;29;20641;-68
2022/04/16 15:32:53;;;;;;;4.50;3.78;;;10.70;68.90;;;;;;4881767;29;20256;-68
2022/04/16 15:35:23;;;;;;;2.70;2.60;;;10.70;66.40;;;;;;4881762;29;20246;-68
2022/04/16 15:37:51;;;;;;;3.10;3.00;;;10.70;65.90;;;;;;4881954;29;20215;-68
2022/04/16 15:40:21;;;;;;;3.15;2.90;;;10.70;64.30;;;;;;4881883;29;20274;-69
2022/04/16 15:42:48;;;;;;;2.80;2.60;;;10.70;65.70;;;;;;4881287;29;20708;-67
2022/04/16 15:45:15;;;;;;;2.67;2.55;;;10.80;64.10;;;;;;4881729;29;20245;-68
2022/04/16 15:47:42;;;;;;;3.45;3.25;;;10.80;66.70;;;;;;4881229;29;20246;-68
2022/04/16 15:50:09;;;;;;;3.50;3.20;;;10.80;68.70;;;;;;4881672;29;20265;-68
2022/04/16 15:52:36;;;;;;;3.58;3.38;;;10.80;70.80;;;;;;4881820;29;20242;-68
2022/04/16 15:55:06;;;;;;;3.58;3.38;;;10.80;67.80;;;;;;4881585;29;20265;-67
2022/04/16 15:57:32;;;;;;;3.55;3.25;;;10.80;65.70;;;;;;4881860;29;20238;-68
2022/04/16 15:59:59;;;;;;;3.95;3.60;;;10.80;64.10;;;;;;4880453;29;20246;-69
2022/04/16 16:02:26;;;;;;;2.65;2.55;;;10.80;62.80;;;;;;4880933;29;20207;-68
2022/04/16 16:04:56;;;;;;;2.63;2.53;;;10.70;60.20;;;;;;4880847;29;20262;-68
2022/04/16 16:07:23;;;;;;;2.67;2.50;;;10.70;59.30;;;;;;4881614;29;20214;-68
2022/04/16 16:09:50;;;;;;;3.22;3.03;;;10.70;58.40;;;;;;4881134;29;20356;-68
2022/04/16 16:12:18;;;;;;;2.70;2.60;;;10.60;58.40;;;;;;4881185;29;20211;-69
2022/04/16 16:14:46;;;;;;;3.10;2.90;;;10.60;60.50;;;;;;4880765;29;20258;-68
2022/04/16 16:17:13;;;;;;;2.88;2.65;;;10.60;60.70;;;;;;4880806;29;20730;-68
2022/04/16 16:19:41;;;;;;;3.13;2.92;;;10.70;62.20;;;;;;4880764;29;20675;-68
2022/04/16 16:22:09;;;;;;;3.35;3.15;;;10.70;63.90;;;;;;4880976;29;20246;-68
2022/04/16 16:24:36;;;;;;;3.33;3.13;;;10.80;65.00;;;;;;4880939;29;20223;-69
2022/04/16 16:27:06;;;;;;;3.10;2.90;;;10.90;60.80;;;;;;4880421;29;20671;-69
2022/04/16 16:29:34;;;;;;;2.70;2.60;;;10.80;59.40;;;;;;4880825;29;20227;-68
2022/04/16 16:32:01;;;;;;;2.85;2.65;;;10.80;60.50;;;;;;4880637;29;20344;-68
2022/04/16 16:34:28;;;;;;;4.40;3.83;;;10.80;60.80;;;;;;4880373;29;20621;-69
2022/04/16 16:36:55;;;;;;;5.65;3.72;;;10.70;59.60;;;;;;4880321;29;20274;-68
2022/04/16 16:39:22;;;;;;;3.80;3.47;;;10.60;61.10;;;;;;4880221;29;20214;-68
2022/04/16 16:41:49;;;;;;;3.97;3.67;;;10.50;61.40;;;;;;4880683;29;20211;-68
2022/04/16 16:44:18;;;;;;;3.30;3.10;;;10.40;61.30;;;;;;4880044;29;20231;-68
2022/04/16 16:46:46;;;;;;;3.33;3.13;;;10.40;59.30;;;;;;4880575;29;20207;-68
2022/04/16 16:49:14;;;;;;;3.60;3.30;;;10.30;59.10;;;;;;4880397;29;20207;-68
2022/04/16 16:51:41;;;;;;;3.47;3.17;;;10.20;58.10;;;;;;4880040;29;20235;-68
2022/04/16 16:54:09;;;;;;;3.35;3.15;;;10.20;59.60;;;;;;4880245;29;20321;-68
2022/04/16 16:56:37;;;;;;;3.10;2.90;;;10.20;59.40;;;;;;4880250;29;20217;-68
2022/04/16 16:59:06;;;;;;;2.60;2.50;;;10.20;57.90;;;;;;4880252;29;20211;-68
2022/04/16 17:01:33;;;;;;;3.33;2.30;;;10.20;58.50;;;;;;4880500;29;20210;-67
2022/04/16 17:06:46;;;;;;;2.47;2.38;;;10.30;55.40;;;;;;4880215;29;20190;-68
2022/04/16 17:09:13;;;;;;;3.40;3.20;;;10.30;54.70;;;;;;4880245;29;20202;-68
2022/04/16 17:11:39;;;;;;;3.40;3.10;;;10.20;52.40;;;;;;4879188;29;20258;-67
2022/04/16 17:19:36;;;;;;;4.40;4.00;;;10.10;53.30;;;;;;4880155;29;20190;-68
2022/04/16 17:22:03;;;;;;;3.28;3.08;;;10.10;53.30;;;;;;4879851;29;20671;-68
2022/04/16 17:24:30;;;;;;;5.18;3.22;;;10.00;53.70;;;;;;4879973;29;20314;-67
2022/04/16 17:26:59;;;;;;;3.78;3.47;;;10.00;53.70;;;;;;4879727;29;20290;-67
2022/04/16 17:29:26;;;;;;;4.00;3.70;;;10.00;54.00;;;;;;4879946;29;20206;-68
2022/04/16 17:31:53;;;;;;;3.10;2.90;;;10.00;53.80;;;;;;4879694;29;20667;-68
2022/04/16 17:34:21;;;;;;;5.90;3.10;;;9.90;54.70;;;;;;4879979;29;20233;-67
2022/04/16 17:36:49;;;;;;;2.97;2.78;;;9.90;54.00;;;;;;4879948;29;20302;-67
2022/04/16 17:39:16;;;;;;;3.92;3.08;;;9.90;54.60;;;;;;4879959;29;20245;-66
2022/04/16 17:42:06;;;;;;;3.15;2.95;;;9.80;53.30;;;;;;4879933;29;20238;-67
2022/04/16 17:44:31;;;;;;;3.58;2.90;;;9.80;51.70;;;;;;4880425;29;20226;-68
2022/04/16 17:46:58;;;;;;;2.75;2.63;;;9.70;52.30;;;;;;4879887;29;20203;-67
2022/04/16 17:49:25;;;;;;;3.30;3.03;;;9.70;52.60;;;;;;4879790;29;20237;-65
2022/04/16 17:51:56;;;;;;;3.40;3.10;;;9.60;53.00;;;;;;4879797;29;20689;-66
2022/04/16 17:54:23;;;;;;;3.10;2.90;;;9.60;53.40;;;;;;4879948;29;20231;-67
2022/04/16 17:56:50;;;;;;;2.95;2.75;;;9.50;53.70;;;;;;4879447;29;20671;-67
2022/04/16 17:59:17;;;;;;;2.80;2.60;;;9.50;54.40;;;;;;4879991;29;20203;-68
2022/04/16 18:01:44;;;;;;;2.53;2.42;;;9.50;55.00;;;;;;4880089;29;20238;-65
2022/04/16 18:04:10;;;;;;;2.88;2.72;;;9.50;55.20;;;;;;4879710;29;20286;-69
2022/04/16 18:06:37;;;;;;;3.40;2.97;;;9.40;55.80;;;;;;4879793;29;20238;-68
2022/04/16 18:09:06;;;;;;;2.42;2.33;;;9.40;56.60;;;;;;4879736;29;20211;-68
2022/04/16 18:11:35;;;;;;;3.60;2.78;;;9.40;57.50;;;;;;4879331;29;20247;-68
2022/04/16 18:14:03;;;;;;;3.55;3.30;;;9.30;58.10;;;;;;4879387;29;20270;-68
2022/04/16 18:16:30;;;;;;;5.85;3.38;;;9.30;58.20;;;;;;4879372;29;20637;-68
2022/04/16 18:18:57;;;;;;;3.65;3.42;;;9.20;59.40;;;;;;4879787;29;20550;-69
2022/04/16 18:21:24;;;;;;;3.58;3.28;;;9.20;59.80;;;;;;4879602;29;20234;-68
2022/04/16 18:23:51;;;;;;;4.60;3.97;;;9.10;61.20;;;;;;4882460;29;20318;-68
2022/04/16 18:26:19;;;;;;;4.03;3.63;;;9.00;62.00;;;;;;4882720;29;20267;-68
2022/04/16 18:28:47;;;;;;;5.22;4.72;;;9.00;62.80;;;;;;4883608;29;20210;-69
2022/04/16 18:31:16;;;;;;;5.97;3.75;;;8.90;63.20;;;;;;4884206;29;20235;-71
2022/04/16 18:33:43;;;;;;;3.83;3.50;;;8.90;63.40;;;;;;4883996;29;20782;-67
2022/04/16 18:36:11;;;;;;;3.60;3.10;;;8.80;63.90;;;;;;4883723;29;20239;-68
2022/04/16 18:38:38;;;;;;;3.80;3.50;;;8.80;65.90;;;;;;4883011;29;20653;-68